Kezdőlap
METAR-TAF:

METAR-TAF

Repülőterek :

Dübendorf, Svájc

földrajzi szélesség: 47-23-55N, földrajzi hosszúság: 8-38-53E, magasság: 448 m

Jelenlegi meteorológiai megfigyelések

A jelentés 21 perccel ezelõtt készült, 08:20 UTC
Dél-délkeleti szél 7 kt, kelet-délkeleti és déli között változik
Hőmérséklet 2°C
Páratartalom 93%
Légköri nyomás 1010 hPa
Látótávolság: 5000 m
Szakadozott felhőzet 2700 lábon
Borult 3200 lábon
esõ

METAR: LSMD 280820Z 16007KT 120V180 5000 RA BKN027 OVC032 02/01 Q1010 RMK WHT

Idő: 09:41 (08:41 UTC)


TAF: hiányzik

Meteorológiai megfigyelések és előrejelzések több, mint 4000 repülőtéren (METAR és TAF jelentéseket).

A térképen piros és sárga pontok jelzik az elérhető meteorológiai állomásokat.

Mozgassa az egeret a pont fölött, hogy megjelenjen az állomás neve.

Azután kattintson az időjárási megfigyelések és előrejelzések megtekintéséhez.

A térkép megváltoztatása: kattintson a fekete keresztel jelölt zöld gombra ráközelítéshez, a vonallal jelölt zöld gombra távolításhoz, vagy a zöld nyilakra a szomszédos térképek eléréséhez.


METAR-TAF: